createdAt,value
2018-12-02T00:03:03.255Z,11.10
2018-12-02T00:11:24.339Z,11.17
2018-12-02T00:19:45.420Z,9.90
2018-12-02T00:28:06.539Z,10.00
2018-12-02T00:36:27.695Z,9.13
2018-12-02T00:44:48.771Z,9.50
2018-12-02T00:53:09.854Z,9.23
2018-12-02T01:01:31.031Z,8.63
2018-12-02T01:09:52.136Z,9.23
2018-12-02T01:18:13.216Z,9.40
2018-12-02T01:26:34.305Z,9.00
2018-12-02T01:34:55.379Z,9.10
2018-12-02T01:43:16.466Z,8.80
2018-12-02T01:51:37.579Z,9.03
2018-12-02T01:59:58.665Z,8.30
2018-12-02T02:08:19.748Z,8.67
2018-12-02T02:16:40.891Z,8.20
2018-12-02T02:25:01.980Z,7.70
2018-12-02T02:33:23.055Z,8.27
2018-12-02T02:41:44.144Z,8.70
2018-12-02T02:50:05.219Z,8.53
2018-12-02T02:58:26.300Z,8.60
2018-12-02T03:06:47.387Z,8.23
2018-12-02T03:15:08.475Z,8.73
2018-12-02T03:23:29.547Z,8.50
2018-12-02T03:31:50.624Z,8.47
2018-12-02T03:40:11.703Z,8.27
2018-12-02T03:48:32.774Z,8.87
2018-12-02T03:56:53.847Z,8.30
2018-12-02T04:05:14.939Z,7.83
2018-12-02T04:13:36.020Z,8.30
2018-12-02T04:21:57.113Z,7.40
2018-12-02T04:30:18.210Z,6.40
2018-12-02T04:38:39.287Z,6.80
2018-12-02T04:47:00.400Z,6.10
2018-12-02T04:55:21.476Z,4.77
2018-12-02T05:03:42.568Z,5.60
2018-12-02T05:12:03.664Z,5.00
2018-12-02T05:20:24.740Z,5.00
2018-12-02T05:28:45.829Z,4.33
2018-12-02T05:37:06.899Z,5.37
2018-12-02T05:45:27.976Z,5.43
2018-12-02T05:53:49.055Z,6.10
2018-12-02T06:02:10.143Z,5.47
2018-12-02T06:10:31.219Z,5.10
2018-12-02T06:18:52.294Z,5.40
2018-12-02T06:27:13.379Z,4.53
2018-12-02T06:35:34.450Z,5.20
2018-12-02T06:43:55.539Z,5.23
2018-12-02T06:52:16.627Z,5.50
2018-12-02T07:00:40.717Z,5.70
2018-12-02T07:09:01.824Z,6.30
2018-12-02T07:17:23.919Z,6.00
2018-12-02T07:25:46.093Z,6.27
2018-12-02T07:34:07.172Z,5.40
2018-12-02T07:42:28.267Z,5.43
2018-12-02T07:50:49.351Z,5.80
2018-12-02T07:59:10.439Z,5.73
2018-12-02T08:07:31.533Z,6.67
2018-12-02T08:15:52.611Z,5.63
2018-12-02T08:24:13.696Z,7.13
2018-12-02T08:32:34.775Z,7.00
2018-12-02T08:40:55.848Z,6.27
2018-12-02T08:49:16.973Z,5.70
2018-12-02T08:57:38.153Z,6.67
2018-12-02T09:05:59.236Z,5.30
2018-12-02T09:14:20.331Z,4.37
2018-12-02T09:22:41.424Z,3.80
2018-12-02T09:31:02.515Z,3.60
2018-12-02T09:39:23.692Z,4.33
2018-12-02T09:47:44.839Z,3.90
2018-12-02T09:56:05.924Z,3.57
2018-12-02T10:04:27.005Z,3.73
2018-12-02T10:12:48.187Z,3.57
2018-12-02T10:21:09.280Z,3.70
2018-12-02T10:29:30.355Z,2.93
2018-12-02T10:37:51.433Z,3.20
2018-12-02T10:46:13.450Z,3.00
2018-12-02T10:54:33.625Z,3.60
2018-12-02T11:02:54.704Z,3.30
2018-12-02T11:11:15.780Z,3.33
2018-12-02T11:19:36.876Z,3.43
2018-12-02T11:27:57.951Z,3.90
2018-12-02T11:36:19.024Z,3.40
2018-12-02T11:44:40.087Z,3.10
2018-12-02T11:53:01.161Z,2.33
2018-12-02T12:01:22.235Z,2.10
2018-12-02T12:09:43.312Z,2.20
2018-12-02T12:18:04.388Z,2.30
2018-12-02T12:26:25.455Z,2.10
2018-12-02T12:34:46.551Z,2.70
2018-12-02T12:43:07.619Z,1.87
2018-12-02T12:51:28.691Z,2.40
2018-12-02T12:59:49.759Z,2.57
2018-12-02T13:08:10.831Z,2.40
2018-12-02T13:16:31.905Z,2.10
2018-12-02T13:24:52.993Z,2.00
2018-12-02T13:33:14.104Z,2.10
2018-12-02T13:41:35.175Z,2.50
2018-12-02T13:49:56.276Z,2.40
2018-12-02T13:58:17.360Z,2.50
2018-12-02T14:06:38.440Z,3.10
2018-12-02T14:14:59.527Z,3.03
2018-12-02T14:23:20.603Z,2.60
2018-12-02T14:31:41.754Z,2.40
2018-12-02T14:40:02.839Z,2.20
2018-12-02T14:48:23.923Z,1.67
2018-12-02T14:56:45.001Z,2.20
2018-12-02T15:05:06.091Z,2.90
2018-12-02T15:13:27.175Z,3.37
2018-12-02T15:21:48.283Z,2.50
2018-12-02T15:30:09.363Z,3.07
2018-12-02T15:38:30.439Z,2.50
2018-12-02T15:46:51.533Z,2.57
2018-12-02T15:55:12.613Z,2.60
2018-12-02T16:03:33.695Z,3.60
2018-12-02T16:11:54.788Z,4.00
2018-12-02T16:20:15.927Z,3.60
2018-12-02T16:28:37.016Z,3.13
2018-12-02T16:36:58.100Z,3.10
2018-12-02T16:45:19.190Z,4.00
2018-12-02T16:53:40.271Z,3.10
2018-12-02T17:02:05.142Z,2.90
2018-12-02T17:10:22.555Z,3.40
2018-12-02T17:18:43.639Z,2.43
2018-12-02T17:27:04.732Z,2.97
2018-12-02T17:35:25.806Z,3.40
2018-12-02T17:43:46.887Z,2.40
2018-12-02T17:52:07.992Z,3.37
2018-12-02T18:00:29.417Z,2.90
2018-12-02T18:08:50.503Z,3.07
2018-12-02T18:17:11.576Z,2.90
2018-12-02T18:25:32.646Z,2.67
2018-12-02T18:33:53.732Z,2.90
2018-12-02T18:42:14.816Z,2.77
2018-12-02T18:50:35.909Z,2.63
2018-12-02T18:58:57.000Z,3.03
2018-12-02T19:07:18.145Z,3.53
2018-12-02T19:15:39.211Z,4.47
2018-12-02T19:24:00.291Z,4.87
2018-12-02T19:32:21.367Z,4.70
2018-12-02T19:40:42.540Z,4.27
2018-12-02T19:49:03.631Z,3.40
2018-12-02T19:57:24.732Z,4.60
2018-12-02T20:05:45.807Z,6.87
2018-12-02T20:14:06.912Z,7.87
2018-12-02T20:22:27.996Z,9.50
2018-12-02T20:30:49.421Z,7.80
2018-12-02T20:39:10.500Z,8.13
2018-12-02T20:47:31.589Z,5.57
2018-12-02T20:55:52.655Z,8.33
2018-12-02T21:04:13.738Z,4.40
2018-12-02T21:12:34.873Z,5.10
2018-12-02T21:20:55.964Z,4.73
2018-12-02T21:29:17.060Z,4.90
2018-12-02T21:37:38.142Z,3.37
2018-12-02T21:45:59.264Z,3.57
2018-12-02T21:54:21.327Z,3.60
2018-12-02T22:02:42.399Z,4.67
2018-12-02T22:11:03.479Z,4.40
2018-12-02T22:19:24.672Z,5.17
2018-12-02T22:27:45.803Z,5.17
2018-12-02T22:36:13.766Z,4.97
2018-12-02T22:44:31.500Z,5.80
2018-12-02T23:02:21.790Z,5.60
2018-12-02T23:45:53.964Z,4.27
